Time;durP1;ratioP1;P1;durP2;ratioP2;P2;SDS_P1;SDS_P2;PMS_P1;PMS_P2;Temp;Humidity;BMP_temperature;BMP_pressure;BME280_temperature;BME280_humidity;BME280_pressure;Samples;Min_cycle;Max_cycle;Signal;HPM_P1;HPM_P2
2022/05/12 00:00:50;;;;;;;9.30;6.97;;;15.80;99.90;;;;;;5055405;28;20064;-48
2022/05/12 00:03:17;;;;;;;8.85;7.32;;;15.80;99.90;;;;;;5055549;28;20408;-48
2022/05/12 00:05:44;;;;;;;7.93;6.85;;;15.80;99.90;;;;;;5055587;28;20068;-48
2022/05/12 00:08:10;;;;;;;7.78;6.97;;;15.70;99.90;;;;;;5055488;28;20064;-48
2022/05/12 00:10:37;;;;;;;7.57;6.80;;;15.50;99.90;;;;;;5036867;28;20041;-49
2022/05/12 00:13:03;;;;;;;11.13;7.22;;;15.60;99.90;;;;;;5053299;28;20516;-48
2022/05/12 00:15:31;;;;;;;8.27;7.47;;;15.50;99.90;;;;;;5055017;28;20405;-48
2022/05/12 00:18:01;;;;;;;9.30;7.00;;;15.50;99.90;;;;;;5036564;28;20037;-49
2022/05/12 00:20:28;;;;;;;8.95;7.85;;;15.40;99.90;;;;;;5055046;28;20214;-48
2022/05/12 00:23:18;;;;;;;9.05;7.07;;;15.40;99.90;;;;;;5054956;28;20018;-49
2022/05/12 00:25:47;;;;;;;7.47;6.70;;;15.40;99.90;;;;;;5054884;28;20016;-48
2022/05/12 00:28:14;;;;;;;9.75;8.35;;;15.30;99.90;;;;;;5055108;28;20036;-48
2022/05/12 00:30:41;;;;;;;9.50;7.15;;;15.40;99.90;;;;;;5054364;28;20485;-49
2022/05/12 00:33:07;;;;;;;9.65;6.53;;;15.50;99.90;;;;;;5054662;28;20029;-49
2022/05/12 00:35:33;;;;;;;7.90;6.63;;;15.50;99.90;;;;;;5054743;28;20364;-48
2022/05/12 00:37:59;;;;;;;8.60;7.63;;;15.50;99.90;;;;;;5054833;28;20029;-49
2022/05/12 00:40:25;;;;;;;7.90;6.80;;;15.40;99.90;;;;;;5054894;28;20025;-48
2022/05/12 00:43:00;;;;;;;8.82;7.00;;;15.30;99.90;;;;;;5054813;28;20025;-49
2022/05/12 00:45:28;;;;;;;10.00;7.32;;;15.30;99.90;;;;;;5052680;28;20033;-48
2022/05/12 00:47:55;;;;;;;9.07;7.03;;;15.40;99.90;;;;;;5054730;28;20091;-49
2022/05/12 00:50:30;;;;;;;11.57;7.15;;;15.40;99.90;;;;;;5054684;28;20029;-49
2022/05/12 00:52:59;;;;;;;8.68;7.63;;;15.50;99.90;;;;;;5054367;28;20053;-48
2022/05/12 00:55:31;;;;;;;8.77;7.40;;;15.70;99.90;;;;;;5054472;28;20377;-48
2022/05/12 00:58:00;;;;;;;7.93;7.20;;;15.70;99.90;;;;;;5054291;28;20037;-48
2022/05/12 01:00:26;;;;;;;8.70;7.80;;;15.90;99.90;;;;;;5032038;28;20072;-48
2022/05/12 01:02:56;;;;;;;8.25;7.45;;;15.80;99.90;;;;;;5032207;28;20581;-49
2022/05/12 01:05:24;;;;;;;8.30;7.50;;;15.80;99.90;;;;;;5032035;28;20033;-48
2022/05/12 01:07:55;;;;;;;9.65;7.32;;;15.90;99.90;;;;;;5031943;28;20451;-48
2022/05/12 01:10:21;;;;;;;8.25;7.45;;;16.10;99.90;;;;;;5032103;28;20044;-49
2022/05/12 01:12:48;;;;;;;12.38;7.25;;;16.10;99.90;;;;;;5032148;28;20029;-48
2022/05/12 01:15:17;;;;;;;9.27;7.38;;;16.10;99.90;;;;;;5031699;28;20037;-49
2022/05/12 01:17:46;;;;;;;8.60;7.65;;;15.90;99.90;;;;;;5034046;28;20052;-49
2022/05/12 01:20:13;;;;;;;10.82;7.90;;;15.70;99.90;;;;;;5014966;28;20566;-48
2022/05/12 01:22:41;;;;;;;11.73;8.30;;;15.40;99.90;;;;;;5031650;28;20034;-48
2022/05/12 01:25:13;;;;;;;11.32;8.93;;;15.30;99.90;;;;;;5031845;28;20065;-48
2022/05/12 01:27:42;;;;;;;11.32;9.10;;;15.20;99.90;;;;;;5047454;28;20485;-48
2022/05/12 01:30:10;;;;;;;13.65;9.15;;;15.10;99.90;;;;;;5031571;28;20037;-48
2022/05/12 01:32:35;;;;;;;11.05;9.38;;;15.00;99.90;;;;;;5053621;28;20055;-48
2022/05/12 01:35:02;;;;;;;10.93;8.93;;;15.30;99.90;;;;;;5053647;28;20485;-48
2022/05/12 01:37:28;;;;;;;14.43;9.38;;;15.40;99.90;;;;;;5053680;28;20032;-48
2022/05/12 01:39:53;;;;;;;26.20;11.63;;;15.30;99.90;;;;;;5053622;28;20044;-49
2022/05/12 01:42:20;;;;;;;13.50;9.38;;;15.00;99.90;;;;;;5052678;28;20470;-48
2022/05/12 01:44:46;;;;;;;12.68;9.45;;;14.90;99.90;;;;;;5053569;28;20021;-48
2022/05/12 01:47:13;;;;;;;10.55;9.35;;;14.80;99.90;;;;;;5053382;28;20560;-48
2022/05/12 01:49:39;;;;;;;11.98;9.80;;;14.70;99.90;;;;;;5053553;28;20035;-49
2022/05/12 01:52:06;;;;;;;17.08;10.57;;;14.80;99.90;;;;;;5053145;28;20135;-48
2022/05/12 01:54:31;;;;;;;11.85;9.55;;;14.90;99.90;;;;;;5053431;28;20063;-48
2022/05/12 01:56:58;;;;;;;11.43;9.30;;;14.90;99.90;;;;;;5053181;28;20065;-48
2022/05/12 01:59:25;;;;;;;13.10;9.90;;;15.00;99.90;;;;;;5053332;28;20029;-48
2022/05/12 02:01:51;;;;;;;13.63;10.55;;;15.10;99.90;;;;;;5053235;28;20029;-48
2022/05/12 02:04:17;;;;;;;12.80;10.25;;;15.00;99.90;;;;;;5053440;28;20031;-48
2022/05/12 02:06:43;;;;;;;13.95;10.27;;;14.90;99.90;;;;;;5053348;28;20025;-48
2022/05/12 02:09:10;;;;;;;11.13;10.02;;;14.90;99.90;;;;;;5050543;28;20123;-48
2022/05/12 02:11:36;;;;;;;11.75;10.18;;;15.10;99.90;;;;;;5050984;28;20033;-48
2022/05/12 02:14:02;;;;;;;11.02;8.90;;;15.20;99.90;;;;;;5000622;28;20380;-48
2022/05/12 02:16:30;;;;;;;13.32;10.32;;;15.30;99.90;;;;;;5050748;28;20135;-48
2022/05/12 02:18:56;;;;;;;12.50;9.52;;;15.00;99.90;;;;;;5050776;28;20463;-49
2022/05/12 02:21:21;;;;;;;10.50;9.32;;;15.10;99.90;;;;;;5050830;28;20132;-48
2022/05/12 02:23:47;;;;;;;13.15;9.65;;;15.20;99.90;;;;;;5033900;28;20112;-49
2022/05/12 02:26:13;;;;;;;10.63;9.52;;;15.40;99.90;;;;;;5050662;28;20079;-48
2022/05/12 02:28:40;;;;;;;13.70;10.13;;;15.30;99.90;;;;;;5017709;28;20037;-48
2022/05/12 02:31:06;;;;;;;12.00;9.43;;;15.30;99.90;;;;;;5050931;28;20033;-48
2022/05/12 02:33:32;;;;;;;13.10;9.32;;;15.10;99.90;;;;;;5050866;28;20139;-48
2022/05/12 02:35:58;;;;;;;15.90;10.82;;;15.00;99.90;;;;;;5033932;28;20131;-49
2022/05/12 02:38:24;;;;;;;12.50;10.18;;;15.20;99.90;;;;;;5050681;28;20033;-48
2022/05/12 02:40:50;;;;;;;10.68;9.68;;;15.20;99.90;;;;;;5052484;28;20162;-48
2022/05/12 02:43:25;;;;;;;12.07;9.38;;;15.10;99.90;;;;;;5051544;28;20102;-48
2022/05/12 02:46:00;;;;;;;10.65;9.50;;;15.20;99.90;;;;;;5034469;28;20388;-48
2022/05/12 02:48:30;;;;;;;10.98;9.52;;;15.10;99.90;;;;;;5052971;28;20025;-48
2022/05/12 02:50:57;;;;;;;11.73;9.73;;;14.90;99.90;;;;;;5052598;28;20032;-48
2022/05/12 02:53:24;;;;;;;12.25;10.48;;;15.00;99.90;;;;;;5053980;28;20037;-48
2022/05/12 02:55:49;;;;;;;12.73;10.15;;;14.80;99.90;;;;;;5056232;28;20389;-48
2022/05/12 02:58:15;;;;;;;14.65;10.18;;;14.60;99.90;;;;;;5056359;28;20033;-48
2022/05/12 03:00:42;;;;;;;17.40;10.88;;;14.40;99.90;;;;;;5071242;28;20040;-48
2022/05/12 03:03:08;;;;;;;15.32;11.45;;;14.10;99.90;;;;;;5071396;28;20075;-48
2022/05/12 03:05:37;;;;;;;11.57;10.18;;;14.10;99.90;;;;;;5056431;28;20025;-49
2022/05/12 03:08:04;;;;;;;13.20;10.10;;;14.40;99.90;;;;;;5056378;28;20078;-49
2022/05/12 03:10:32;;;;;;;15.32;11.10;;;14.10;99.90;;;;;;5038035;28;20342;-48
2022/05/12 03:12:57;;;;;;;12.85;9.77;;;13.90;99.90;;;;;;5056363;28;20100;-48
2022/05/12 03:15:23;;;;;;;11.63;9.63;;;13.70;99.90;;;;;;5056427;28;20029;-48
2022/05/12 03:17:50;;;;;;;11.93;9.95;;;13.60;99.90;;;;;;5056462;28;20061;-49
2022/05/12 03:20:19;;;;;;;11.73;9.32;;;13.90;99.90;;;;;;5056146;28;20025;-48
2022/05/12 03:22:45;;;;;;;9.85;8.82;;;14.20;99.90;;;;;;5056233;28;20029;-49
2022/05/12 03:25:13;;;;;;;13.70;9.57;;;14.30;99.90;;;;;;5056201;28;20029;-48
2022/05/12 03:27:40;;;;;;;12.07;10.00;;;14.30;99.90;;;;;;5056098;28;20020;-48
2022/05/12 03:30:10;;;;;;;11.63;9.55;;;14.50;99.90;;;;;;5056515;28;20033;-48
2022/05/12 03:32:36;;;;;;;11.35;8.77;;;14.40;99.90;;;;;;5038078;28;20163;-48
2022/05/12 03:35:03;;;;;;;10.00;8.73;;;14.40;99.90;;;;;;5054115;28;20043;-49
2022/05/12 03:37:29;;;;;;;13.07;9.20;;;14.20;99.90;;;;;;5055897;28;20036;-48
2022/05/12 03:39:54;;;;;;;11.70;9.60;;;14.20;99.90;;;;;;5053762;28;20029;-48
2022/05/12 03:42:20;;;;;;;12.50;9.05;;;14.30;99.90;;;;;;5055830;28;20025;-49
2022/05/12 03:44:54;;;;;;;10.95;9.18;;;14.30;99.90;;;;;;5056201;28;20477;-48
2022/05/12 03:47:21;;;;;;;12.10;8.98;;;14.60;99.90;;;;;;5055879;28;20033;-48
2022/05/12 03:49:53;;;;;;;12.18;9.68;;;14.80;99.90;;;;;;5036954;28;20104;-49
2022/05/12 03:52:20;;;;;;;;;;;14.50;99.90;;;;;;5058025;28;20052;-48
2022/05/12 03:54:47;;;;;;;13.52;9.30;;;14.60;99.90;;;;;;5055689;28;19909;-49
2022/05/12 03:57:14;;;;;;;15.82;9.02;;;14.90;99.90;;;;;;5055769;28;20037;-48
2022/05/12 03:59:41;;;;;;;10.93;9.60;;;15.00;99.90;;;;;;5055726;28;20055;-48
2022/05/12 04:02:09;;;;;;;10.25;8.65;;;15.20;99.90;;;;;;5055408;28;20074;-49
2022/05/12 04:04:35;;;;;;;10.20;9.05;;;15.20;99.90;;;;;;5056681;28;20028;-48
2022/05/12 04:07:02;;;;;;;12.48;9.25;;;15.30;99.90;;;;;;5055565;28;20025;-49
2022/05/12 04:09:28;;;;;;;12.52;10.15;;;15.40;99.90;;;;;;5020356;28;20073;-48
2022/05/12 04:11:54;;;;;;;13.00;9.55;;;15.50;99.90;;;;;;5055528;28;20028;-48
2022/05/12 04:14:20;;;;;;;13.93;9.70;;;15.70;99.90;;;;;;5036793;28;20578;-49
2022/05/12 04:16:46;;;;;;;13.23;9.90;;;15.80;99.90;;;;;;5054501;28;20056;-48
2022/05/12 04:19:13;;;;;;;16.05;11.27;;;15.90;99.90;;;;;;5055401;28;20484;-49
2022/05/12 04:21:39;;;;;;;10.25;8.95;;;16.00;99.90;;;;;;5055364;28;20036;-48
2022/05/12 04:24:09;;;;;;;10.27;9.25;;;16.10;99.90;;;;;;5055133;28;20051;-48
2022/05/12 04:26:37;;;;;;;10.52;9.50;;;16.20;99.90;;;;;;5054995;28;20028;-48
2022/05/12 04:29:04;;;;;;;11.50;9.00;;;16.20;99.90;;;;;;5055236;28;20021;-49
2022/05/12 04:31:30;;;;;;;11.68;10.05;;;16.40;99.90;;;;;;5054897;28;20462;-48
2022/05/12 04:36:41;;;;;;;13.50;10.50;;;16.40;99.90;;;;;;5054760;28;20095;-48
2022/05/12 04:39:08;;;;;;;12.20;9.48;;;16.60;99.90;;;;;;5052941;28;20040;-48
2022/05/12 04:41:34;;;;;;;13.82;9.30;;;16.50;99.90;;;;;;5055118;28;20055;-49
2022/05/12 04:44:00;;;;;;;13.07;10.52;;;16.50;99.90;;;;;;5054506;28;20056;-48
2022/05/12 04:46:27;;;;;;;14.02;10.98;;;16.50;99.90;;;;;;5036160;28;20152;-48
2022/05/12 04:48:54;;;;;;;11.80;9.60;;;16.60;99.90;;;;;;5054765;28;20377;-49
2022/05/12 04:51:21;;;;;;;10.98;9.88;;;16.50;99.90;;;;;;5054721;28;20451;-48
2022/05/12 04:53:46;;;;;;;11.68;10.48;;;16.20;99.90;;;;;;5054720;28;20032;-48
2022/05/12 04:56:13;;;;;;;12.00;10.20;;;16.20;99.90;;;;;;5054465;28;20119;-49
2022/05/12 04:58:39;;;;;;;11.85;9.98;;;16.50;99.90;;;;;;5054580;28;20033;-48
2022/05/12 05:01:05;;;;;;;17.27;10.68;;;16.60;99.90;;;;;;5061985;28;20047;-48
2022/05/12 05:03:30;;;;;;;10.75;9.65;;;16.80;99.90;;;;;;5072311;28;20079;-48
2022/05/12 05:05:56;;;;;;;12.45;9.70;;;17.00;99.90;;;;;;5072227;28;20116;-49
2022/05/12 05:08:23;;;;;;;12.57;10.25;;;17.20;99.90;;;;;;5074320;28;20036;-48
2022/05/12 05:10:51;;;;;;;15.35;10.75;;;17.40;99.90;;;;;;5072795;28;20389;-49
2022/05/12 05:13:20;;;;;;;12.93;10.68;;;17.40;99.90;;;;;;5074813;28;20033;-49
2022/05/12 05:15:47;;;;;;;17.95;11.73;;;17.40;99.90;;;;;;5073308;28;20020;-48
2022/05/12 05:18:15;;;;;;;16.63;11.15;;;17.50;99.90;;;;;;5074070;28;20380;-48
2022/05/12 05:20:42;;;;;;;15.88;12.07;;;17.70;99.90;;;;;;5073783;28;20029;-48
2022/05/12 05:23:08;;;;;;;19.98;13.07;;;17.90;99.90;;;;;;5072234;28;20370;-49
2022/05/12 05:25:34;;;;;;;13.32;12.02;;;18.00;99.90;;;;;;5074066;28;20024;-49
2022/05/12 05:28:00;;;;;;;14.43;12.23;;;18.20;99.90;;;;;;5073832;28;20449;-49
2022/05/12 05:30:27;;;;;;;14.80;10.25;;;18.20;99.90;;;;;;5073904;28;20028;-48
2022/05/12 05:32:54;;;;;;;12.23;10.65;;;18.30;99.90;;;;;;5073960;28;20101;-49
2022/05/12 05:35:21;;;;;;;13.05;11.50;;;18.40;99.90;;;;;;5071621;28;20522;-48
2022/05/12 05:37:48;;;;;;;14.73;11.48;;;18.60;99.90;;;;;;5051481;28;20488;-49
2022/05/12 05:40:17;;;;;;;12.68;11.02;;;18.70;99.90;;;;;;5033941;28;20148;-48
2022/05/12 05:42:44;;;;;;;13.38;11.98;;;19.00;99.90;;;;;;5031852;28;20041;-48
2022/05/12 05:45:15;;;;;;;14.40;11.68;;;19.10;99.90;;;;;;5034074;28;20417;-48
2022/05/12 05:47:45;;;;;;;12.13;10.70;;;19.20;99.90;;;;;;5031984;28;20072;-48
2022/05/12 05:50:21;;;;;;;12.88;11.57;;;19.20;99.90;;;;;;5034048;28;20069;-48
2022/05/12 05:55:32;;;;;;;13.98;11.15;;;19.30;99.90;;;;;;5036223;28;20095;-49
2022/05/12 05:57:59;;;;;;;12.00;10.73;;;19.40;99.90;;;;;;5052819;28;20045;-49
2022/05/12 06:00:25;;;;;;;12.02;10.82;;;19.50;99.90;;;;;;5052927;28;20064;-48
2022/05/12 06:02:51;;;;;;;12.23;11.02;;;19.70;99.90;;;;;;5053066;28;20036;-49
2022/05/12 06:05:18;;;;;;;15.50;11.00;;;19.80;99.90;;;;;;5052562;28;20025;-50
2022/05/12 06:07:44;;;;;;;11.80;9.48;;;20.00;99.90;;;;;;5052341;28;20461;-49
2022/05/12 06:10:12;;;;;;;11.60;8.88;;;20.20;99.90;;;;;;5053573;28;20025;-49
2022/05/12 06:12:38;;;;;;;10.73;9.73;;;20.40;99.90;;;;;;5052388;28;20087;-49
2022/05/12 06:15:04;;;;;;;15.02;9.93;;;;;;;;;;5052029;28;20499;-48
2022/05/12 06:17:30;;;;;;;10.23;9.23;;;20.60;99.90;;;;;;5049793;28;20412;-48
2022/05/12 06:19:56;;;;;;;12.32;10.32;;;20.70;99.90;;;;;;5046292;28;20049;-49
2022/05/12 06:22:23;;;;;;;11.70;10.18;;;20.80;99.90;;;;;;5050468;28;20132;-49
2022/05/12 06:24:49;;;;;;;12.55;10.35;;;20.90;99.90;;;;;;5053446;28;20489;-49
2022/05/12 06:27:20;;;;;;;13.18;10.23;;;21.00;99.90;;;;;;5048333;28;20029;-48
2022/05/12 06:29:47;;;;;;;14.38;10.18;;;21.10;99.90;;;;;;5050819;28;20534;-48
2022/05/12 06:32:14;;;;;;;15.20;10.18;;;21.20;99.90;;;;;;5057345;28;20033;-49
2022/05/12 06:34:43;;;;;;;11.98;8.45;;;21.30;99.90;;;;;;5056126;28;20045;-48
2022/05/12 06:37:10;;;;;;;10.45;8.30;;;;;;;;;;5054410;28;20424;-49
2022/05/12 06:39:36;;;;;;;9.52;8.52;;;;;;;;;;5037910;28;20492;-49
2022/05/12 06:42:02;;;;;;;14.27;9.02;;;21.90;99.90;;;;;;5057217;28;20033;-49
2022/05/12 06:44:29;;;;;;;10.50;8.52;;;22.00;99.90;;;;;;5056724;28;20103;-49
2022/05/12 06:46:55;;;;;;;9.65;7.38;;;22.10;99.90;;;;;;5056308;28;20032;-49
2022/05/12 06:49:21;;;;;;;10.13;7.70;;;22.00;99.90;;;;;;5053897;28;20032;-48
2022/05/12 06:51:47;;;;;;;9.20;8.27;;;22.20;99.90;;;;;;5055589;28;20106;-49
2022/05/12 06:54:13;;;;;;;12.02;8.60;;;22.30;99.90;;;;;;5050994;28;20037;-48
2022/05/12 06:56:41;;;;;;;11.32;8.70;;;22.40;99.90;;;;;;5056018;28;20368;-48
2022/05/12 06:59:07;;;;;;;12.52;9.07;;;22.50;99.90;;;;;;5053042;28;20488;-48
2022/05/12 07:01:34;;;;;;;12.07;8.77;;;;;;;;;;5056309;28;20048;-48
2022/05/12 07:04:00;;;;;;;10.52;9.10;;;22.70;99.90;;;;;;5055913;28;20029;-47
2022/05/12 07:06:27;;;;;;;12.73;8.93;;;22.80;99.90;;;;;;5055652;28;20033;-48
2022/05/12 07:08:53;;;;;;;9.38;8.07;;;22.90;99.90;;;;;;5053290;28;20027;-48
2022/05/12 07:11:19;;;;;;;12.05;8.40;;;23.10;99.90;;;;;;5048258;28;20396;-48
2022/05/12 07:13:46;;;;;;;11.18;8.13;;;23.30;99.90;;;;;;5052794;28;20093;-49
2022/05/12 07:16:12;;;;;;;11.88;7.93;;;;;;;;;;5052839;28;20044;-48
2022/05/12 07:18:38;;;;;;;9.77;8.50;;;23.40;99.90;;;;;;5035891;28;20033;-48
2022/05/12 07:26:36;;;;;;;15.80;11.27;;;24.00;99.90;;;;;;5055230;28;20052;-49
2022/05/12 07:29:10;;;;;;;15.00;12.52;;;24.20;99.90;;;;;;5019306;28;20150;-49
2022/05/12 07:31:36;;;;;;;8.73;6.90;;;;;;;;;;5054627;28;20032;-48
2022/05/12 07:34:02;;;;;;;9.68;6.72;;;24.70;99.90;;;;;;5052541;28;20385;-48
2022/05/12 07:36:32;;;;;;;14.35;8.00;;;24.60;99.90;;;;;;5050639;28;20036;-49
2022/05/12 07:38:58;;;;;;;9.73;6.30;;;24.80;99.90;;;;;;5051757;28;20041;-48
2022/05/12 07:41:25;;;;;;;10.05;6.38;;;;;;;;;;4983365;28;20568;-48
2022/05/12 07:43:51;;;;;;;8.18;5.90;;;25.10;99.90;;;;;;5053314;28;20469;-48
2022/05/12 07:46:19;;;;;;;8.60;5.60;;;;;;;;;;5052714;28;20131;-48
2022/05/12 07:48:45;;;;;;;6.95;5.85;;;;;;;;;;5051863;28;20041;-49
2022/05/12 07:51:11;;;;;;;9.27;6.40;;;;;;;;;;5052289;28;20138;-48
2022/05/12 07:53:38;;;;;;;8.60;5.43;;;25.40;99.90;;;;;;5053215;28;20033;-49
2022/05/12 07:56:04;;;;;;;8.18;5.78;;;;;;;;;;5052912;28;20373;-47
2022/05/12 07:58:32;;;;;;;7.50;5.63;;;;;;;;;;4985931;28;20052;-47
2022/05/12 08:00:58;;;;;;;5.57;4.80;;;;;;;;;;5051782;28;20390;-48
2022/05/12 08:03:25;;;;;;;8.52;5.07;;;;;;;;;;5036408;28;20086;-47
2022/05/12 08:05:52;;;;;;;5.55;4.55;;;;;;;;;;5053246;28;20035;-47
2022/05/12 08:08:18;;;;;;;6.28;4.88;;;;;;;;;;5052820;28;20039;-48
2022/05/12 08:10:44;;;;;;;7.95;4.90;;;;;;;;;;5053173;28;20029;-48
2022/05/12 08:13:17;;;;;;;4.78;4.35;;;;;;;;;;5049714;28;20473;-48
2022/05/12 08:15:45;;;;;;;8.75;5.05;;;26.30;99.90;;;;;;5049168;28;20041;-48
2022/05/12 08:18:11;;;;;;;10.88;5.10;;;26.30;99.90;;;;;;5035320;28;20042;-48
2022/05/12 08:20:38;;;;;;;6.43;4.40;;;26.40;99.90;;;;;;5045782;28;20033;-47
2022/05/12 08:23:04;;;;;;;6.80;4.75;;;26.50;99.90;;;;;;5055424;28;20075;-46
2022/05/12 08:25:30;;;;;;;7.30;4.60;;;26.50;99.90;;;;;;5068610;28;20044;-44
2022/05/12 08:27:56;;;;;;;9.05;5.18;;;26.60;99.90;;;;;;5024064;28;20032;-44
2022/05/12 08:30:22;;;;;;;6.28;4.60;;;26.80;99.90;;;;;;5054546;28;20029;-44
2022/05/12 08:32:48;;;;;;;5.57;5.07;;;26.80;99.90;;;;;;5051050;28;20187;-44
2022/05/12 08:35:14;;;;;;;5.70;4.30;;;26.90;99.90;;;;;;5054983;28;20029;-44
2022/05/12 08:37:40;;;;;;;5.47;3.88;;;26.70;99.90;;;;;;5033510;28;20041;-44
2022/05/12 08:40:11;;;;;;;7.53;5.32;;;26.70;99.90;;;;;;5054465;28;20025;-44
2022/05/12 08:42:43;;;;;;;7.63;5.38;;;26.70;99.90;;;;;;5052671;28;20029;-47
2022/05/12 08:45:11;;;;;;;10.07;5.80;;;26.80;99.90;;;;;;5053599;28;20118;-44
2022/05/12 08:47:45;;;;;;;8.07;5.93;;;26.90;99.90;;;;;;5054582;28;20025;-44
2022/05/12 08:50:20;;;;;;;6.43;5.05;;;26.80;99.90;;;;;;5056762;28;20112;-45
2022/05/12 08:52:55;;;;;;;6.03;5.18;;;27.20;99.90;;;;;;5054085;28;20401;-44
2022/05/12 08:55:30;;;;;;;8.60;5.18;;;27.20;99.90;;;;;;5054688;28;20040;-44
2022/05/12 08:58:07;;;;;;;5.40;4.05;;;27.10;99.90;;;;;;5052585;28;20059;-44
2022/05/12 09:00:57;;;;;;;7.80;4.43;;;27.40;99.90;;;;;;5067956;28;20380;-45
2022/05/12 09:03:35;;;;;;;6.72;4.47;;;;;;;;;;5057655;28;20033;-44
2022/05/12 09:06:21;;;;;;;6.90;4.10;;;;;;;;;;5056000;28;20029;-44
2022/05/12 09:08:50;;;;;;;6.90;4.30;;;;;;;;;;5052011;28;20083;-44
2022/05/12 09:11:45;;;;;;;8.05;4.00;;;27.90;99.90;;;;;;5052163;28;20033;-44
2022/05/12 09:14:22;;;;;;;5.65;3.92;;;;;;;;;;5015539;28;20041;-45
2022/05/12 09:16:52;;;;;;;14.45;3.83;;;;;;;;;;5031787;28;20045;-45
2022/05/12 09:19:19;;;;;;;15.27;4.85;;;;;;;;;;5032065;28;20052;-44
2022/05/12 09:21:45;;;;;;;5.82;3.55;;;;;;;;;;5031943;28;20420;-44
2022/05/12 09:24:12;;;;;;;14.98;4.97;;;;;;;;;;5027843;28;20453;-45
2022/05/12 09:26:46;;;;;;;8.10;4.50;;;;;;;;;;5028250;28;20117;-45
2022/05/12 09:29:22;;;;;;;6.15;3.60;;;;;;;;;;5029315;28;20134;-44
2022/05/12 09:32:02;;;;;;;7.80;3.90;;;;;;;;;;5019831;28;20045;-45
2022/05/12 09:34:36;;;;;;;7.10;4.15;;;29.50;99.90;;;;;;5012133;28;20563;-45
2022/05/12 09:37:20;;;;;;;8.30;4.20;;;29.50;99.90;;;;;;5011788;28;20096;-45
2022/05/12 09:39:51;;;;;;;6.82;3.58;;;29.80;95.20;;;;;;5011357;28;20474;-44
2022/05/12 09:42:27;;;;;;;13.02;4.90;;;29.50;95.30;;;;;;4992322;28;20041;-46
2022/05/12 09:44:55;;;;;;;4.55;3.58;;;;;;;;;;5013024;28;20112;-45
2022/05/12 09:47:20;;;;;;;6.95;3.65;;;29.40;93.60;;;;;;5011846;28;20038;-45
2022/05/12 09:49:47;;;;;;;7.38;3.45;;;;;;;;;;5027790;28;20569;-45
2022/05/12 09:52:20;;;;;;;8.38;3.75;;;;;;;;;;5051976;28;20094;-45
2022/05/12 09:54:46;;;;;;;6.55;3.90;;;29.50;92.50;;;;;;5047534;28;20507;-44
2022/05/12 09:57:26;;;;;;;5.78;3.65;;;29.50;93.10;;;;;;5068170;28;20049;-46
2022/05/12 09:59:57;;;;;;;6.23;3.50;;;;;;;;;;5053405;28;20035;-45
2022/05/12 10:07:53;;;;;;;6.63;3.80;;;30.00;99.90;;;;;;5052203;28;20029;-47
2022/05/12 10:08:16;;;;;;;;;;;30.50;99.90;;;;;;5051524;28;20051;-45
2022/05/12 10:10:45;;;;;;;8.32;3.25;;;30.60;99.90;;;;;;5051067;28;19955;-45
2022/05/12 10:13:29;;;;;;;4.65;3.10;;;;;;;;;;5049154;28;20037;-46
2022/05/12 10:15:56;;;;;;;8.45;4.20;;;;;;;;;;5047720;28;20039;-46
2022/05/12 10:18:38;;;;;;;5.63;3.42;;;;;;;;;;5029287;28;20066;-47
2022/05/12 10:21:34;;;;;;;8.45;3.45;;;;;;;;;;5047755;28;20500;-45
2022/05/12 10:24:02;;;;;;;9.02;3.83;;;31.20;99.90;;;;;;5004433;28;20037;-45
2022/05/12 10:26:43;;;;;;;11.82;3.38;;;31.40;93.50;;;;;;5008966;28;20421;-48
2022/05/12 10:29:30;;;;;;;7.00;4.00;;;;;;;;;;5009245;28;20065;-45
2022/05/12 10:32:05;;;;;;;7.13;4.35;;;;;;;;;;4967222;28;20035;-45
2022/05/12 10:34:44;;;;;;;8.98;3.75;;;;;;;;;;4934278;29;20078;-46
2022/05/12 10:37:29;;;;;;;7.10;3.95;;;;;;;;;;4949839;29;20051;-45
2022/05/12 10:39:55;;;;;;;6.90;3.72;;;;;;;;;;4951342;29;20224;-45
2022/05/12 10:42:40;;;;;;;5.25;3.70;;;;;;;;;;4951595;29;20062;-45
2022/05/12 10:45:16;;;;;;;7.85;3.85;;;;;;;;;;4951304;29;20043;-46
2022/05/12 10:48:15;;;;;;;9.93;3.70;;;32.20;92.90;;;;;;4951246;29;20110;-45
2022/05/12 10:51:05;;;;;;;5.88;3.95;;;32.50;93.20;;;;;;4951344;29;20102;-45
2022/05/12 10:53:45;;;;;;;5.35;3.88;;;32.80;92.00;;;;;;4951243;29;20539;-45
2022/05/12 10:56:31;;;;;;;8.13;3.92;;;31.80;92.40;;;;;;4951157;29;20050;-45
2022/05/12 10:59:10;;;;;;;5.28;3.85;;;32.30;93.60;;;;;;4912933;29;20052;-45
2022/05/12 11:01:39;;;;;;;8.73;3.47;;;;;;;;;;4932172;29;20055;-44
2022/05/12 11:04:05;;;;;;;9.63;3.72;;;;;;;;;;4932124;29;20574;-45
2022/05/12 11:06:37;;;;;;;9.15;3.72;;;;;;;;;;4932238;29;20484;-46
2022/05/12 11:09:06;;;;;;;;;;;32.20;99.90;;;;;;4951785;28;20039;-45
2022/05/12 11:11:38;;;;;;;6.82;4.05;;;32.50;99.90;;;;;;4970666;28;19910;-45
2022/05/12 11:14:21;;;;;;;8.90;3.92;;;32.40;92.50;;;;;;4971045;28;20030;-46
2022/05/12 11:17:02;;;;;;;9.02;3.47;;;32.60;97.60;;;;;;4957785;28;20047;-45
2022/05/12 11:19:28;;;;;;;7.00;3.90;;;32.60;84.40;;;;;;4974159;28;20031;-45
2022/05/12 11:21:56;;;;;;;12.55;4.03;;;;;;;;;;4974081;28;20035;-45
2022/05/12 11:24:30;;;;;;;6.40;3.53;;;;;;;;;;4973991;28;20534;-45
2022/05/12 11:27:02;;;;;;;9.25;4.00;;;32.60;99.90;;;;;;4974034;28;20038;-45
2022/05/12 11:29:44;;;;;;;6.90;3.50;;;;;;;;;;4973722;28;20042;-46
2022/05/12 11:32:28;;;;;;;10.88;4.15;;;33.00;99.90;;;;;;4973887;28;20051;-45
2022/05/12 11:35:11;;;;;;;6.75;3.70;;;33.20;94.70;;;;;;4975651;28;20507;-46
2022/05/12 11:37:43;;;;;;;6.10;3.42;;;32.80;94.50;;;;;;5054790;28;20677;-45
2022/05/12 11:40:12;;;;;;;9.80;4.05;;;32.90;94.30;;;;;;5035464;28;20044;-45
2022/05/12 11:45:48;;;;;;;8.10;5.25;;;;;;;;;;5005349;28;20116;-45
2022/05/12 11:48:23;;;;;;;7.72;3.78;;;;;;;;;;4997487;28;20557;-45
2022/05/12 11:51:23;;;;;;;5.97;3.63;;;33.30;99.90;;;;;;5002370;28;20458;-45
2022/05/12 11:53:55;;;;;;;6.53;3.63;;;;;;;;;;5006270;28;20041;-45
2022/05/12 11:56:40;;;;;;;8.25;3.67;;;;;;;;;;4992769;28;20126;-45
2022/05/12 11:59:20;;;;;;;6.57;3.58;;;33.20;99.90;;;;;;4992808;28;20034;-45
2022/05/12 12:01:53;;;;;;;8.63;3.67;;;33.60;92.60;;;;;;4992820;28;20026;-46
2022/05/12 12:04:38;;;;;;;5.28;3.00;;;33.50;79.30;;;;;;4973075;28;20034;-44
2022/05/12 12:07:27;;;;;;;5.63;3.40;;;33.50;80.30;;;;;;4991951;28;20116;-46
2022/05/12 12:09:55;;;;;;;9.60;4.15;;;33.70;81.30;;;;;;4989803;28;20042;-45
2022/05/12 12:12:53;;;;;;;5.85;3.38;;;33.70;78.60;;;;;;4991865;28;20100;-46
2022/05/12 12:15:32;;;;;;;7.88;3.22;;;33.40;80.60;;;;;;4934502;29;20135;-46
2022/05/12 12:18:00;;;;;;;7.03;3.17;;;33.60;79.10;;;;;;4934526;29;20536;-45
2022/05/12 12:20:28;;;;;;;5.88;3.58;;;33.90;81.50;;;;;;4934436;29;20062;-45
2022/05/12 12:23:15;;;;;;;6.03;3.40;;;34.00;77.70;;;;;;4965950;28;20522;-46
2022/05/12 12:25:44;;;;;;;5.28;2.85;;;34.10;78.90;;;;;;4978066;28;20074;-45
2022/05/12 12:28:24;;;;;;;12.80;3.63;;;34.30;78.90;;;;;;4992277;28;20026;-46
2022/05/12 12:30:55;;;;;;;7.75;3.50;;;33.70;78.80;;;;;;4992199;28;20038;-45
2022/05/12 12:33:24;;;;;;;5.13;3.22;;;33.40;78.30;;;;;;4992224;28;20089;-45
2022/05/12 12:35:56;;;;;;;6.20;3.35;;;33.20;78.50;;;;;;4992224;28;20038;-45
2022/05/12 12:38:40;;;;;;;;;;;33.30;79.80;;;;;;4959889;28;20046;-47
2022/05/12 12:41:06;;;;;;;7.63;3.42;;;33.80;79.50;;;;;;4991966;28;19917;-45
2022/05/12 12:43:37;;;;;;;8.38;3.55;;;33.10;80.80;;;;;;4991814;28;20038;-45
2022/05/12 12:46:47;;;;;;;6.70;3.40;;;33.40;81.20;;;;;;4987044;28;20038;-45
2022/05/12 12:49:19;;;;;;;6.75;3.10;;;33.80;79.90;;;;;;4914773;29;20059;-45
2022/05/12 12:51:51;;;;;;;;;;;33.60;78.10;;;;;;4963704;28;20105;-44
2022/05/12 12:57:15;;;;;;;5.45;3.20;;;34.00;80.50;;;;;;4972283;28;20089;-45
2022/05/12 12:59:59;;;;;;;11.40;3.20;;;34.00;78.80;;;;;;4971435;28;20046;-46
2022/05/12 13:02:32;;;;;;;7.47;2.78;;;33.80;79.20;;;;;;4971519;28;20039;-45
2022/05/12 13:05:07;;;;;;;9.45;3.67;;;33.30;78.70;;;;;;4972059;28;20391;-45
2022/05/12 13:07:35;;;;;;;6.70;3.47;;;33.20;79.80;;;;;;4988112;28;20043;-45
2022/05/12 13:10:06;;;;;;;7.72;3.33;;;33.40;77.70;;;;;;4971310;28;20464;-45
2022/05/12 13:12:32;;;;;;;4.97;2.88;;;33.30;76.90;;;;;;4970851;28;20038;-46
2022/05/12 13:15:02;;;;;;;5.65;3.30;;;33.70;79.20;;;;;;4970877;28;20038;-46
2022/05/12 13:17:38;;;;;;;6.93;3.40;;;33.90;78.40;;;;;;4971321;28;20047;-45
2022/05/12 13:20:18;;;;;;;6.15;3.15;;;33.80;78.10;;;;;;4971034;28;20182;-45
2022/05/12 13:22:48;;;;;;;5.05;3.20;;;33.20;75.80;;;;;;4971738;28;20051;-45
2022/05/12 13:25:24;;;;;;;5.97;3.28;;;33.50;77.30;;;;;;4995520;28;20543;-46
2022/05/12 13:27:51;;;;;;;5.32;3.10;;;33.70;76.70;;;;;;5052689;28;20032;-45
2022/05/12 13:30:20;;;;;;;6.90;3.35;;;33.60;76.90;;;;;;5052208;28;20032;-45
2022/05/12 13:32:51;;;;;;;9.60;3.70;;;33.60;76.00;;;;;;5049628;28;20029;-45